East Hodge, Louisiana
Current Conditions -  °F | °C
As of 3:15 PM on Tuesday 27 Jan 2015 (Local Time) from KRSN Reporting Station
Clear Clear  
Wind Chill: 73°   Ceiling: Unl
Heat Index: 73°   Visibility: 10mi
Dew Point: 33°   Wind: 3mph
Humidity: 23%   Direction: 280°W
Pressure: 30.14"   Gusts: NA
Location:  32.2776°N, 92.713°W
Report Text: KRSN 272115Z AUTO 28003KT 10SM CLR 23/01 A3014 RMK AO2 T02280006
Loading
Personal Weather Stations






























Interactive Weather Map New forecast layout! Learn more

10-Day Weather Forecast

Advertisements
Track Severe Weather on mobile